Time;durP1;ratioP1;P1;durP2;ratioP2;P2;SDS_P1;SDS_P2;PMS_P1;PMS_P2;Temp;Humidity;BMP_temperature;BMP_pressure;BME280_temperature;BME280_humidity;BME280_pressure;Samples;Min_cycle;Max_cycle;Signal;HPM_P1;HPM_P2
2021/12/21 00:00:35;;;;;;;4.97;3.80;;;;;;;;;;5054940;28;20485;-77
2021/12/21 00:03:05;;;;;;;8.40;4.32;;;;;;;;;;5037152;28;20045;-77
2021/12/21 00:05:32;;;;;;;5.88;4.35;;;;;;;;;;5055316;28;20114;-74
2021/12/21 00:08:03;;;;;;;5.95;4.07;;;;;;;;;;5054445;28;20036;-72
2021/12/21 00:10:32;;;;;;;6.90;4.15;;;;;;;;;;5054430;28;20041;-73
2021/12/21 00:13:04;;;;;;;6.28;3.90;;;;;;;;;;5054809;28;20504;-76
2021/12/21 00:23:46;;;;;;;7.18;3.53;;;;;;;;;;5054697;28;20470;-74
2021/12/21 00:26:16;;;;;;;6.63;3.40;;;;;;;;;;5054629;28;20357;-77
2021/12/21 00:31:18;;;;;;;5.70;3.40;;;;;;;;;;5053601;28;20128;-73
2021/12/21 00:33:47;;;;;;;5.07;3.28;;;;;;;;;;5054424;28;20045;-74
2021/12/21 00:36:19;;;;;;;5.90;3.17;;;;;;;;;;5054359;28;20037;-74
2021/12/21 00:38:47;;;;;;;5.32;3.63;;;;;;;;;;5020196;28;20135;-77
2021/12/21 00:41:15;;;;;;;8.13;3.38;;;;;;;;;;5035960;28;20032;-77
2021/12/21 00:43:43;;;;;;;4.88;3.40;;;;;;;;;;5039216;28;20042;-72
2021/12/21 00:46:10;;;;;;;9.35;3.35;;;;;;;;;;5034003;28;20068;-74
2021/12/21 00:48:47;;;;;;;5.43;3.17;;;;;;;;;;5016161;28;20071;-74
2021/12/21 00:51:16;;;;;;;5.13;3.20;;;;;;;;;;5033950;28;20046;-73
2021/12/21 00:53:44;;;;;;;3.55;3.00;;;;;;;;;;5033722;28;20041;-73
2021/12/21 00:56:12;;;;;;;5.25;3.28;;;;;;;;;;5033862;28;20080;-73
2021/12/21 00:58:41;;;;;;;11.85;3.05;;;;;;;;;;5033981;28;20041;-76
2021/12/21 01:01:09;;;;;;;6.53;3.50;;;;;;;;;;5033828;28;20120;-76
2021/12/21 01:03:40;;;;;;;5.63;3.35;;;;;;;;;;5034257;28;20472;-73
2021/12/21 01:08:54;;;;;;;4.78;2.97;;;;;;;;;;5033524;28;20060;-76
2021/12/21 01:11:29;;;;;;;5.15;2.78;;;;;;;;;;5035323;28;20045;-73
2021/12/21 01:17:14;;;;;;;5.32;2.70;;;;;;;;;;5073399;28;20044;-72
2021/12/21 01:19:20;;;;;;;5.10;3.13;;;;;;;;;;5063042;28;20060;-73
2021/12/21 01:22:07;;;;;;;5.30;2.93;;;;;;;;;;5073766;28;20123;-74
2021/12/21 01:27:30;;;;;;;4.22;3.40;;;;;;;;;;5073860;28;20044;-70
2021/12/21 01:32:58;;;;;;;3.53;2.70;;;;;;;;;;5073395;28;20044;-75
2021/12/21 01:35:32;;;;;;;6.72;2.83;;;;;;;;;;5071816;28;20461;-70
2021/12/21 01:40:40;;;;;;;3.70;2.53;;;;;;;;;;5073201;28;20123;-70
2021/12/21 01:51:19;;;;;;;4.60;2.90;;;;;;;;;;5073129;28;20048;-72
2021/12/21 01:53:47;;;;;;;5.40;2.72;;;;;;;;;;5038262;28;20048;-70
2021/12/21 01:56:15;;;;;;;5.05;2.70;;;;;;;;;;5072926;28;20408;-71
2021/12/21 01:58:44;;;;;;;5.43;2.90;;;;;;;;;;5073191;28;20048;-70
2021/12/21 02:01:12;;;;;;;4.43;2.33;;;;;;;;;;5055209;28;20032;-70
2021/12/21 02:03:47;;;;;;;3.80;2.53;;;;;;;;;;5038877;28;20361;-72
2021/12/21 02:06:19;;;;;;;3.83;2.53;;;;;;;;;;5072673;28;20045;-76
2021/12/21 02:08:46;;;;;;;4.40;2.50;;;;;;;;;;5073231;28;20123;-75
2021/12/21 02:11:14;;;;;;;4.18;2.65;;;;;;;;;;5038267;28;20119;-70
2021/12/21 02:13:47;;;;;;;5.78;2.72;;;;;;;;;;5072750;28;20037;-72
2021/12/21 02:17:14;;;;;;;5.35;2.38;;;;;;;;;;5072682;28;20111;-75
2021/12/21 02:19:18;;;;;;;5.07;2.50;;;;;;;;;;5059720;28;20075;-70
2021/12/21 02:21:51;;;;;;;5.47;2.72;;;;;;;;;;5072974;28;20083;-72
2021/12/21 02:24:23;;;;;;;6.30;2.80;;;;;;;;;;5054774;28;20404;-70
2021/12/21 02:27:17;;;;;;;4.78;2.50;;;;;;;;;;5073293;28;20044;-71
2021/12/21 02:29:43;;;;;;;3.65;2.70;;;;;;;;;;5072463;28;20088;-70
2021/12/21 02:32:12;;;;;;;3.53;2.40;;;;;;;;;;5054752;28;20119;-71
2021/12/21 02:34:44;;;;;;;5.35;2.53;;;;;;;;;;5054457;28;20090;-72
2021/12/21 02:37:12;;;;;;;4.68;2.70;;;;;;;;;;5072385;28;20051;-72
2021/12/21 02:39:39;;;;;;;3.25;2.70;;;;;;;;;;5072146;28;20044;-70
2021/12/21 02:42:09;;;;;;;3.00;2.45;;;;;;;;;;5071935;28;20040;-71
2021/12/21 02:44:38;;;;;;;5.80;2.58;;;;;;;;;;5072605;28;20044;-75
2021/12/21 02:47:06;;;;;;;6.25;2.67;;;;;;;;;;5072598;28;20044;-72
2021/12/21 02:49:34;;;;;;;4.38;2.75;;;;;;;;;;5072460;28;20087;-71
2021/12/21 02:52:01;;;;;;;4.22;2.55;;;;;;;;;;5072501;28;20048;-70
2021/12/21 02:54:30;;;;;;;4.45;2.78;;;;;;;;;;5076019;28;20055;-72
2021/12/21 02:56:57;;;;;;;3.55;2.90;;;;;;;;;;5058069;28;20045;-70
2021/12/21 02:59:25;;;;;;;3.58;2.63;;;;;;;;;;5075793;28;20048;-70
2021/12/21 03:01:54;;;;;;;7.68;2.55;;;;;;;;;;5076045;28;20044;-76
2021/12/21 03:04:21;;;;;;;7.38;2.80;;;;;;;;;;5075987;28;20045;-72
2021/12/21 03:11:57;;;;;;;4.95;2.45;;;;;;;;;;5075903;28;20048;-75
2021/12/21 03:14:25;;;;;;;3.22;2.30;;;;;;;;;;5075973;28;20065;-72
2021/12/21 03:16:53;;;;;;;3.90;2.50;;;;;;;;;;5075841;28;20044;-72
2021/12/21 03:19:21;;;;;;;3.92;2.67;;;;;;;;;;5075654;28;20448;-72
2021/12/21 03:21:48;;;;;;;7.25;2.90;;;;;;;;;;5075957;28;20422;-71
2021/12/21 03:24:16;;;;;;;4.00;2.47;;;;;;;;;;5075725;28;20051;-71
2021/12/21 03:26:43;;;;;;;5.10;2.50;;;;;;;;;;5075447;28;20033;-72
2021/12/21 03:29:12;;;;;;;3.67;2.85;;;;;;;;;;5075474;28;20033;-70
2021/12/21 03:31:39;;;;;;;3.80;2.65;;;;;;;;;;5075110;28;20063;-75
2021/12/21 03:34:07;;;;;;;7.97;2.65;;;;;;;;;;5075851;28;20446;-72
2021/12/21 03:36:34;;;;;;;4.03;2.60;;;;;;;;;;5075540;28;20136;-74
2021/12/21 03:39:08;;;;;;;5.80;3.13;;;;;;;;;;5057656;28;20119;-75
2021/12/21 03:41:39;;;;;;;3.78;2.63;;;;;;;;;;5075513;28;20369;-72
2021/12/21 03:44:08;;;;;;;5.43;2.90;;;;;;;;;;5075390;28;20529;-71
2021/12/21 03:46:44;;;;;;;4.10;2.63;;;;;;;;;;5075271;28;20055;-72
2021/12/21 03:49:51;;;;;;;4.25;2.72;;;;;;;;;;5040740;28;20045;-75
2021/12/21 03:52:05;;;;;;;4.60;2.92;;;;;;;;;;5074429;28;20055;-72
2021/12/21 03:54:33;;;;;;;5.20;3.30;;;;;;;;;;5057255;28;20051;-71
2021/12/21 03:57:01;;;;;;;7.28;2.78;;;;;;;;;;5075058;28;20282;-75
2021/12/21 03:59:29;;;;;;;3.05;2.65;;;;;;;;;;5040637;28;20434;-76
2021/12/21 04:01:57;;;;;;;3.30;3.00;;;;;;;;;;5049998;28;20099;-70
2021/12/21 04:04:25;;;;;;;3.92;2.85;;;;;;;;;;5054355;28;20044;-75
2021/12/21 04:06:54;;;;;;;3.85;2.40;;;;;;;;;;5036498;28;20045;-70
2021/12/21 04:09:21;;;;;;;4.65;2.75;;;;;;;;;;5037002;28;20048;-76
2021/12/21 04:11:49;;;;;;;3.70;2.65;;;;;;;;;;5054898;28;20037;-72
2021/12/21 04:14:17;;;;;;;6.13;2.65;;;;;;;;;;5054770;28;20041;-71
2021/12/21 04:16:45;;;;;;;3.70;2.92;;;;;;;;;;5037053;28;20532;-75
2021/12/21 04:19:13;;;;;;;6.10;3.42;;;;;;;;;;5036380;28;20451;-76
2021/12/21 04:21:41;;;;;;;3.50;2.65;;;;;;;;;;5054845;28;20041;-72
2021/12/21 04:24:09;;;;;;;6.95;2.70;;;;;;;;;;5054639;28;20033;-72
2021/12/21 04:26:36;;;;;;;4.18;2.53;;;;;;;;;;5048331;28;20040;-75
2021/12/21 04:29:04;;;;;;;2.50;2.30;;;;;;;;;;5034136;28;20046;-75
2021/12/21 04:31:32;;;;;;;4.45;2.80;;;;;;;;;;5034095;28;20072;-71
2021/12/21 04:33:59;;;;;;;4.55;2.63;;;;;;;;;;5000480;28;20053;-70
2021/12/21 04:36:27;;;;;;;3.33;2.45;;;;;;;;;;5034667;28;20049;-72
2021/12/21 04:38:57;;;;;;;3.67;2.50;;;;;;;;;;5034421;28;20033;-70
2021/12/21 04:41:28;;;;;;;7.03;2.95;;;;;;;;;;5016212;28;20460;-71
2021/12/21 04:43:57;;;;;;;3.60;2.70;;;;;;;;;;5016570;28;20374;-70
2021/12/21 04:46:26;;;;;;;7.55;2.55;;;;;;;;;;5034247;28;20041;-70
2021/12/21 04:48:53;;;;;;;3.65;2.50;;;;;;;;;;5016390;28;20480;-70
2021/12/21 04:51:21;;;;;;;6.72;2.90;;;;;;;;;;5033925;28;20041;-73
2021/12/21 04:53:49;;;;;;;5.10;2.92;;;;;;;;;;5015996;28;20048;-72
2021/12/21 04:56:16;;;;;;;5.95;2.78;;;;;;;;;;5033870;28;20417;-70
2021/12/21 04:58:44;;;;;;;5.38;2.92;;;;;;;;;;5034085;28;20124;-75
2021/12/21 05:01:11;;;;;;;4.82;2.92;;;;;;;;;;5033953;28;20049;-70
2021/12/21 05:03:39;;;;;;;4.10;2.70;;;;;;;;;;5034291;28;20504;-75
2021/12/21 05:06:08;;;;;;;4.25;3.20;;;;;;;;;;5033960;28;20052;-72
2021/12/21 05:08:38;;;;;;;4.22;2.80;;;;;;;;;;5033336;28;20041;-72
2021/12/21 05:11:08;;;;;;;3.67;2.55;;;;;;;;;;5033734;28;20497;-72
2021/12/21 05:13:37;;;;;;;5.63;2.60;;;;;;;;;;5016499;28;20045;-70
2021/12/21 05:16:05;;;;;;;2.92;2.08;;;;;;;;;;5033595;28;20056;-72
2021/12/21 05:18:32;;;;;;;5.50;2.55;;;;;;;;;;5033299;28;20048;-70
2021/12/21 05:21:14;;;;;;;3.72;2.30;;;;;;;;;;5033451;28;20040;-75
2021/12/21 05:23:42;;;;;;;4.53;3.38;;;;;;;;;;5032993;28;20573;-75
2021/12/21 05:26:09;;;;;;;3.42;2.60;;;;;;;;;;5033202;28;20493;-72
2021/12/21 05:28:37;;;;;;;5.68;2.85;;;;;;;;;;5033133;28;20501;-71
2021/12/21 05:31:04;;;;;;;9.77;3.90;;;;;;;;;;5043871;28;20481;-72
2021/12/21 05:33:32;;;;;;;6.53;4.47;;;;;;;;;;5053252;28;20044;-75
2021/12/21 05:35:59;;;;;;;6.72;4.20;;;;;;;;;;5060378;28;20075;-72
2021/12/21 05:38:33;;;;;;;5.95;3.13;;;;;;;;;;5073195;28;20480;-70
2021/12/21 05:41:03;;;;;;;5.43;3.30;;;;;;;;;;5073080;28;20041;-71
2021/12/21 05:43:31;;;;;;;4.75;3.30;;;;;;;;;;5072367;28;20131;-72
2021/12/21 05:45:58;;;;;;;7.07;3.40;;;;;;;;;;5072981;28;20072;-70
2021/12/21 05:48:26;;;;;;;8.10;3.50;;;;;;;;;;5072670;28;20067;-75
2021/12/21 05:50:53;;;;;;;8.57;3.70;;;;;;;;;;5073080;28;20040;-75
2021/12/21 05:53:21;;;;;;;5.78;3.30;;;;;;;;;;5073054;28;20051;-70
2021/12/21 05:55:48;;;;;;;4.10;3.30;;;;;;;;;;5072261;28;20123;-71
2021/12/21 05:58:16;;;;;;;5.35;3.30;;;;;;;;;;5072771;28;20416;-72
2021/12/21 06:00:43;;;;;;;8.25;4.32;;;;;;;;;;5072577;28;20123;-72
2021/12/21 06:03:11;;;;;;;5.18;3.15;;;;;;;;;;5055010;28;20128;-74
2021/12/21 06:05:39;;;;;;;5.15;3.13;;;;;;;;;;5072477;28;20036;-74
2021/12/21 06:08:06;;;;;;;5.50;3.33;;;;;;;;;;5054400;28;20036;-68
2021/12/21 06:10:38;;;;;;;4.97;2.53;;;;;;;;;;5072541;28;20094;-75
2021/12/21 06:13:24;;;;;;;8.68;2.80;;;;;;;;;;5054690;28;20139;-74
2021/12/21 06:26:34;;;;;;;4.90;3.95;;;;;;;;;;5058343;28;20116;-68
2021/12/21 06:29:02;;;;;;;9.73;3.67;;;;;;;;;;5075084;28;20504;-68
2021/12/21 06:31:30;;;;;;;7.53;3.58;;;;;;;;;;5073825;28;20040;-70
2021/12/21 06:33:58;;;;;;;5.95;3.90;;;;;;;;;;5075911;28;20123;-70
2021/12/21 06:36:26;;;;;;;9.30;3.75;;;;;;;;;;5058010;28;20447;-67
2021/12/21 06:38:54;;;;;;;5.32;2.85;;;;;;;;;;5075889;28;20051;-67
2021/12/21 06:41:21;;;;;;;6.90;3.13;;;;;;;;;;5058121;28;20140;-71
2021/12/21 06:43:49;;;;;;;6.60;3.10;;;;;;;;;;5041155;28;20395;-76
2021/12/21 06:46:41;;;;;;;9.13;4.70;;;;;;;;;;5057591;28;20463;-74
2021/12/21 06:51:52;;;;;;;9.43;5.57;;;;;;;;;;5075780;28;20064;-68
2021/12/21 06:54:20;;;;;;;9.85;4.95;;;;;;;;;;5075630;28;20415;-70
2021/12/21 06:56:48;;;;;;;7.40;4.05;;;;;;;;;;5074087;28;20048;-70
2021/12/21 06:59:16;;;;;;;6.72;3.53;;;;;;;;;;5056464;28;20056;-73
2021/12/21 07:01:48;;;;;;;12.63;4.25;;;;;;;;;;5075219;28;20446;-71
2021/12/21 07:04:19;;;;;;;10.93;5.90;;;;;;;;;;5075420;28;20044;-72
2021/12/21 07:06:47;;;;;;;12.93;6.15;;;;;;;;;;5075503;28;20044;-70
2021/12/21 07:20:20;;;;;;;15.90;7.32;;;;;;;;;;5074913;28;20045;-70
2021/12/21 07:22:48;;;;;;;12.48;8.80;;;;;;;;;;5075871;28;20098;-70
2021/12/21 07:25:15;;;;;;;17.30;7.60;;;;;;;;;;5047132;28;20047;-74
2021/12/21 07:27:43;;;;;;;12.73;6.60;;;;;;;;;;5035389;28;20041;-68
2021/12/21 07:30:11;;;;;;;17.20;7.63;;;;;;;;;;5035029;28;20382;-74
2021/12/21 07:32:39;;;;;;;17.13;8.70;;;;;;;;;;5034531;28;20128;-70
2021/12/21 07:35:07;;;;;;;15.38;8.18;;;;;;;;;;5034783;28;20045;-70
2021/12/21 07:37:35;;;;;;;18.35;9.02;;;;;;;;;;5035206;28;20465;-74
2021/12/21 07:40:05;;;;;;;14.95;8.82;;;;;;;;;;5034878;28;20394;-71
2021/12/21 07:42:33;;;;;;;19.05;7.60;;;;;;;;;;5034784;28;20056;-74
2021/12/21 07:45:00;;;;;;;9.07;6.25;;;;;;;;;;5034753;28;20362;-67
2021/12/21 07:47:28;;;;;;;9.98;6.07;;;;;;;;;;5039744;28;20136;-74
2021/12/21 07:49:56;;;;;;;25.80;7.30;;;;;;;;;;5051477;28;20504;-71
2021/12/21 07:52:23;;;;;;;14.85;7.25;;;;;;;;;;5037239;28;20408;-69
2021/12/21 07:54:51;;;;;;;23.65;9.07;;;;;;;;;;5036415;28;20041;-73
2021/12/21 07:57:18;;;;;;;15.90;9.95;;;;;;;;;;5054707;28;20124;-73
2021/12/21 07:59:46;;;;;;;16.70;9.25;;;;;;;;;;5036574;28;20500;-72
2021/12/21 08:02:14;;;;;;;17.55;10.52;;;;;;;;;;5054539;28;20109;-74
2021/12/21 08:04:43;;;;;;;127.72;24.08;;;;;;;;;;5054306;28;20510;-74
2021/12/21 08:07:15;;;;;;;194.55;25.05;;;;;;;;;;5048889;28;20034;-70
2021/12/21 08:09:46;;;;;;;21.98;5.68;;;;;;;;;;5052776;28;20071;-71
2021/12/21 08:12:16;;;;;;;9.65;4.68;;;;;;;;;;5037603;28;20044;-74
2021/12/21 08:14:44;;;;;;;22.35;7.10;;;;;;;;;;5054084;28;20045;-74
2021/12/21 08:17:12;;;;;;;15.30;6.15;;;;;;;;;;5054141;28;20132;-71
2021/12/21 08:19:44;;;;;;;45.50;6.95;;;;;;;;;;5054235;28;20048;-68
2021/12/21 08:22:12;;;;;;;15.88;5.25;;;;;;;;;;5054276;28;20095;-75
2021/12/21 08:24:43;;;;;;;11.07;5.03;;;;;;;;;;5054490;28;20124;-68
2021/12/21 08:27:11;;;;;;;20.92;4.88;;;;;;;;;;5054362;28;20041;-75
2021/12/21 08:29:38;;;;;;;7.20;3.80;;;;;;;;;;5053282;28;20079;-71
2021/12/21 08:32:06;;;;;;;8.90;3.60;;;;;;;;;;5053848;28;20032;-70
2021/12/21 08:34:34;;;;;;;11.43;4.07;;;;;;;;;;5054034;28;20473;-70
2021/12/21 08:37:03;;;;;;;6.80;4.15;;;;;;;;;;5054293;28;20037;-68
2021/12/21 08:39:38;;;;;;;5.88;3.35;;;;;;;;;;5054056;28;20041;-71
2021/12/21 08:42:07;;;;;;;7.47;4.40;;;;;;;;;;5054030;28;20512;-71
2021/12/21 08:44:34;;;;;;;16.05;4.82;;;;;;;;;;5053681;28;20103;-71
2021/12/21 08:47:03;;;;;;;7.60;3.15;;;;;;;;;;5044508;28;20548;-71
2021/12/21 08:49:31;;;;;;;7.40;3.60;;;;;;;;;;5033806;28;20042;-75
2021/12/21 08:51:59;;;;;;;6.72;3.65;;;;;;;;;;5015702;28;20064;-70
2021/12/21 08:54:28;;;;;;;7.05;3.47;;;;;;;;;;5033842;28;20096;-73
2021/12/21 08:56:55;;;;;;;6.22;4.00;;;;;;;;;;5033160;28;20065;-72
2021/12/21 08:59:24;;;;;;;7.63;3.65;;;;;;;;;;5033503;28;20124;-72
2021/12/21 09:01:53;;;;;;;6.35;3.10;;;;;;;;;;5033578;28;20045;-68
2021/12/21 09:04:22;;;;;;;3.53;2.30;;;;;;;;;;5033133;28;20052;-70
2021/12/21 09:06:49;;;;;;;6.40;3.20;;;;;;;;;;5032687;28;20063;-73
2021/12/21 09:09:17;;;;;;;8.27;3.65;;;;;;;;;;5032744;28;20045;-69
2021/12/21 09:11:45;;;;;;;5.50;3.40;;;;;;;;;;5032971;28;20083;-72
2021/12/21 09:14:13;;;;;;;5.47;3.83;;;;;;;;;;5033837;28;20148;-70
2021/12/21 09:16:41;;;;;;;7.60;3.58;;;;;;;;;;5042684;28;20412;-68
2021/12/21 09:19:09;;;;;;;6.68;3.33;;;;;;;;;;5038276;28;20144;-70
2021/12/21 09:21:37;;;;;;;9.10;3.33;;;;;;;;;;5041033;28;20504;-70
2021/12/21 09:24:04;;;;;;;11.68;3.50;;;;;;;;;;5043004;28;20037;-72
2021/12/21 09:26:33;;;;;;;8.48;3.58;;;;;;;;;;5041356;28;20459;-73
2021/12/21 09:29:00;;;;;;;5.97;3.90;;;;;;;;;;5044004;28;20037;-71
2021/12/21 09:31:27;;;;;;;3.92;2.40;;;;;;;;;;5040658;28;20068;-73
2021/12/21 09:33:55;;;;;;;4.82;1.90;;;;;;;;;;5041632;28;20038;-74
2021/12/21 09:36:25;;;;;;;7.60;1.83;;;;;;;;;;5041891;28;20044;-70
2021/12/21 09:38:52;;;;;;;7.78;2.38;;;;;;;;;;5040981;28;20041;-71
2021/12/21 09:41:20;;;;;;;7.43;3.95;;;;;;;;;;5041314;28;20041;-70
2021/12/21 09:43:47;;;;;;;8.27;3.90;;;;;;;;;;5045272;28;20397;-68
2021/12/21 09:46:15;;;;;;;9.20;4.32;;;;;;;;;;5042710;28;20045;-68
2021/12/21 09:48:44;;;;;;;9.63;4.85;;;;;;;;;;5025805;28;20383;-70
2021/12/21 09:51:12;;;;;;;7.25;3.80;;;;;;;;;;5017557;28;20052;-70
2021/12/21 09:53:39;;;;;;;9.63;4.28;;;;;;;;;;5032312;28;20051;-73
2021/12/21 09:56:07;;;;;;;7.15;3.72;;;;;;;;;;5032425;28;20042;-70
2021/12/21 09:58:35;;;;;;;6.50;3.72;;;;;;;;;;5032955;28;20469;-68
2021/12/21 10:01:04;;;;;;;7.88;4.22;;;;;;;;;;5044316;28;20497;-70
2021/12/21 10:03:32;;;;;;;12.07;3.90;;;;;;;;;;5044272;28;20056;-70
2021/12/21 10:06:06;;;;;;;9.23;3.58;;;;;;;;;;5044650;28;20043;-70
2021/12/21 10:08:34;;;;;;;9.23;3.55;;;;;;;;;;5049782;28;20045;-73
2021/12/21 10:11:03;;;;;;;9.10;3.15;;;;;;;;;;5056613;28;20139;-70
2021/12/21 10:13:34;;;;;;;6.78;3.40;;;;;;;;;;5056800;28;20112;-68
2021/12/21 10:16:03;;;;;;;6.88;3.47;;;;;;;;;;5056914;28;20036;-68
2021/12/21 10:18:39;;;;;;;8.63;4.50;;;;;;;;;;5056698;28;20037;-70
2021/12/21 10:21:07;;;;;;;11.65;4.18;;;;;;;;;;5056146;28;20361;-70
2021/12/21 10:23:37;;;;;;;9.05;3.90;;;;;;;;;;5055988;28;20037;-68
2021/12/21 10:26:10;;;;;;;9.35;3.90;;;;;;;;;;5056394;28;20049;-73
2021/12/21 10:28:43;;;;;;;7.30;2.58;;;;;;;;;;5055960;28;20065;-70
2021/12/21 10:31:12;;;;;;;6.45;2.60;;;;;;;;;;5047072;28;20060;-68
2021/12/21 10:33:44;;;;;;;10.50;2.40;;;;;;;;;;5038683;28;20069;-70
2021/12/21 10:36:12;;;;;;;3.65;2.45;;;;;;;;;;5049650;28;20037;-68
2021/12/21 10:39:07;;;;;;;5.20;3.55;;;;;;;;;;5046671;28;20049;-68
2021/12/21 10:41:43;;;;;;;5.85;3.50;;;;;;;;;;5025492;28;20076;-70
2021/12/21 10:44:13;;;;;;;8.15;3.55;;;;;;;;;;5046841;28;20045;-71
2021/12/21 10:46:42;;;;;;;7.10;3.95;;;;;;;;;;5134013;23;20056;-68
2021/12/21 10:49:31;;;;;;;6.10;4.03;;;;;;;;;;5054739;28;20040;-70
2021/12/21 10:52:05;;;;;;;13.57;3.75;;;;;;;;;;5054949;28;20112;-70
2021/12/21 10:54:35;;;;;;;5.95;3.35;;;;;;;;;;5052226;28;20530;-70
2021/12/21 10:57:05;;;;;;;10.60;3.38;;;;;;;;;;5053364;28;20037;-70
2021/12/21 10:59:34;;;;;;;10.75;3.08;;;;;;;;;;5055137;28;20052;-70
2021/12/21 11:02:35;;;;;;;4.18;2.80;;;;;;;;;;5037904;28;20045;-71
2021/12/21 11:05:11;;;;;;;5.10;3.25;;;;;;;;;;5006090;28;20061;-71
2021/12/21 11:07:45;;;;;;;7.32;3.30;;;;;;;;;;5055017;28;20049;-71
2021/12/21 11:10:24;;;;;;;6.10;2.15;;;;;;;;;;5055449;28;20049;-74
2021/12/21 11:13:11;;;;;;;4.75;2.13;;;;;;;;;;5055138;28;20160;-72
2021/12/21 11:15:48;;;;;;;3.15;2.25;;;;;;;;;;5055046;28;20045;-71
2021/12/21 11:18:17;;;;;;;5.05;2.03;;;;;;;;;;5055114;28;20080;-74
2021/12/21 11:20:48;;;;;;;2.92;1.95;;;;;;;;;;5037136;28;20059;-71
2021/12/21 11:23:17;;;;;;;3.65;1.40;;;;;;;;;;5055018;28;20179;-72
2021/12/21 11:25:47;;;;;;;2.80;1.58;;;;;;;;;;5054603;28;20044;-70
2021/12/21 11:28:17;;;;;;;2.10;1.60;;;;;;;;;;5054294;28;20124;-71
2021/12/21 11:30:45;;;;;;;5.03;1.60;;;;;;;;;;5037412;28;20041;-71
2021/12/21 11:33:16;;;;;;;2.45;1.73;;;;;;;;;;5054705;28;20045;-71
2021/12/21 11:38:15;;;;;;;3.50;1.40;;;;;;;;;;5054895;28;20047;-70
2021/12/21 11:40:44;;;;;;;2.45;1.70;;;;;;;;;;5054847;28;20044;-70
2021/12/21 11:43:23;;;;;;;3.03;1.60;;;;;;;;;;5035698;28;20041;-72
2021/12/21 11:46:11;;;;;;;4.80;1.50;;;;;;;;;;5054603;28;20057;-70
2021/12/21 11:48:45;;;;;;;2.13;1.50;;;;;;;;;;5054719;28;20047;-71
2021/12/21 11:51:16;;;;;;;4.32;1.70;;;;;;;;;;5054911;28;20051;-72
2021/12/21 11:53:43;;;;;;;4.97;1.80;;;;;;;;;;5054154;28;20049;-72
2021/12/21 11:56:17;;;;;;;3.10;1.60;;;;;;;;;;5053881;28;20052;-71
2021/12/21 11:58:45;;;;;;;2.55;1.33;;;;;;;;;;5054326;28;20072;-71
2021/12/21 12:01:14;;;;;;;2.08;1.20;;;;;;;;;;5054391;28;20110;-70
2021/12/21 12:03:46;;;;;;;7.97;1.73;;;;;;;;;;5054911;28;20041;-72
2021/12/21 12:06:16;;;;;;;3.42;1.60;;;;;;;;;;5054362;28;20043;-72
2021/12/21 12:08:45;;;;;;;3.85;1.40;;;;;;;;;;5054055;28;20400;-71
2021/12/21 12:11:27;;;;;;;4.35;1.50;;;;;;;;;;5054108;28;20041;-71
2021/12/21 12:14:14;;;;;;;4.90;1.60;;;;;;;;;;5054234;28;20044;-73
2021/12/21 12:16:42;;;;;;;6.63;1.58;;;;;;;;;;5053844;28;20071;-71
2021/12/21 12:19:14;;;;;;;6.93;1.52;;;;;;;;;;5053820;28;20490;-71
2021/12/21 12:21:53;;;;;;;4.47;1.40;;;;;;;;;;5054263;28;20053;-72
2021/12/21 12:24:23;;;;;;;4.65;1.70;;;;;;;;;;5053767;28;20287;-74
2021/12/21 12:26:59;;;;;;;4.47;1.45;;;;;;;;;;5035923;28;20412;-74
2021/12/21 12:29:41;;;;;;;4.05;1.60;;;;;;;;;;5036841;28;20083;-70
2021/12/21 12:32:11;;;;;;;2.67;1.55;;;;;;;;;;5053639;28;20455;-70
2021/12/21 12:34:41;;;;;;;2.53;1.60;;;;;;;;;;5053913;28;20460;-71
2021/12/21 12:37:20;;;;;;;4.40;1.63;;;;;;;;;;5035559;28;20045;-72
2021/12/21 12:39:49;;;;;;;3.10;1.42;;;;;;;;;;5036069;28;20057;-70
2021/12/21 12:42:22;;;;;;;3.13;1.60;;;;;;;;;;5035913;28;20133;-74
2021/12/21 12:44:51;;;;;;;2.47;1.50;;;;;;;;;;5053606;28;20451;-70
2021/12/21 12:47:18;;;;;;;7.93;2.13;;;;;;;;;;5035593;28;20266;-72
2021/12/21 12:49:52;;;;;;;6.13;2.45;;;;;;;;;;5053304;28;20075;-72
2021/12/21 12:52:27;;;;;;;6.63;1.98;;;;;;;;;;5053468;28;20043;-74
2021/12/21 12:54:57;;;;;;;6.20;1.98;;;;;;;;;;5053234;28;20066;-74
2021/12/21 12:57:25;;;;;;;5.68;1.90;;;;;;;;;;5045176;28;20041;-72
2021/12/21 12:59:53;;;;;;;3.15;1.58;;;;;;;;;;5036061;28;20087;-71
2021/12/21 13:02:22;;;;;;;2.33;1.80;;;;;;;;;;5046520;28;20041;-70
2021/12/21 13:04:50;;;;;;;3.60;1.67;;;;;;;;;;5020196;28;20492;-74
2021/12/21 13:07:25;;;;;;;3.30;1.80;;;;;;;;;;5036764;28;20041;-70
2021/12/21 13:10:00;;;;;;;3.97;2.17;;;;;;;;;;5023684;28;20049;-70
2021/12/21 13:12:29;;;;;;;3.30;2.22;;;;;;;;;;5040287;28;20128;-70
2021/12/21 13:14:57;;;;;;;7.70;1.92;;;;;;;;;;5044622;28;20111;-71
2021/12/21 13:17:24;;;;;;;3.70;2.17;;;;;;;;;;5047043;28;20068;-72
2021/12/21 13:19:54;;;;;;;4.45;2.30;;;;;;;;;;5042337;28;20082;-72
2021/12/21 13:22:26;;;;;;;6.90;2.33;;;;;;;;;;5041553;28;20488;-75
2021/12/21 13:24:55;;;;;;;6.65;2.22;;;;;;;;;;5046698;28;20099;-71
2021/12/21 13:27:24;;;;;;;3.72;2.53;;;;;;;;;;5052490;28;20043;-72
2021/12/21 13:29:53;;;;;;;4.95;2.60;;;;;;;;;;5051822;28;20076;-71
2021/12/21 13:32:22;;;;;;;8.73;2.90;;;;;;;;;;5052567;28;20037;-71
2021/12/21 13:34:56;;;;;;;6.55;2.13;;;;;;;;;;5035280;28;20045;-71
2021/12/21 13:37:24;;;;;;;5.03;2.50;;;;;;;;;;5052981;28;20049;-70
2021/12/21 13:39:57;;;;;;;5.28;2.53;;;;;;;;;;5051988;28;20045;-71
2021/12/21 13:42:27;;;;;;;5.57;2.70;;;;;;;;;;5053111;28;20040;-71
2021/12/21 13:44:56;;;;;;;6.30;3.17;;;;;;;;;;5034356;28;20098;-70
2021/12/21 13:47:28;;;;;;;8.00;3.30;;;;;;;;;;5052431;28;20085;-72
2021/12/21 13:50:07;;;;;;;9.10;2.78;;;;;;;;;;5052218;28;20459;-71
2021/12/21 13:52:42;;;;;;;8.52;3.88;;;;;;;;;;5052674;28;20041;-71
2021/12/21 13:55:24;;;;;;;5.28;3.10;;;;;;;;;;5052754;28;20099;-70
2021/12/21 13:57:54;;;;;;;5.80;2.45;;;;;;;;;;5052672;28;20043;-72
2021/12/21 14:00:24;;;;;;;5.85;3.10;;;;;;;;;;5052755;28;20045;-74
2021/12/21 14:03:05;;;;;;;12.18;3.60;;;;;;;;;;5052737;28;20055;-71
2021/12/21 14:05:43;;;;;;;7.65;3.35;;;;;;;;;;5052823;28;20044;-73
2021/12/21 14:08:11;;;;;;;9.40;3.42;;;;;;;;;;5034624;28;20120;-70
2021/12/21 14:10:43;;;;;;;12.63;3.47;;;;;;;;;;5052470;28;20037;-71
2021/12/21 14:13:11;;;;;;;14.63;3.57;;;;;;;;;;5051910;28;20041;-73
2021/12/21 14:15:42;;;;;;;9.52;3.28;;;;;;;;;;5052405;28;20432;-70
2021/12/21 14:18:14;;;;;;;8.35;3.40;;;;;;;;;;5034664;28;20053;-72
2021/12/21 14:20:41;;;;;;;8.43;3.40;;;;;;;;;;5051936;28;20041;-74
2021/12/21 14:23:09;;;;;;;8.10;3.33;;;;;;;;;;5052430;28;20049;-73
2021/12/21 14:25:37;;;;;;;5.00;2.78;;;;;;;;;;5051681;28;20064;-73
2021/12/21 14:28:11;;;;;;;12.85;3.85;;;;;;;;;;5051795;28;20037;-70
2021/12/21 14:30:39;;;;;;;9.60;3.38;;;;;;;;;;5052352;28;20048;-73
2021/12/21 14:33:45;;;;;;;10.88;3.55;;;;;;;;;;5052375;28;20486;-70
2021/12/21 14:36:01;;;;;;;10.35;5.32;;;;;;;;;;5050465;28;20061;-71
2021/12/21 14:38:31;;;;;;;8.75;3.42;;;;;;;;;;5052357;28;20052;-71
2021/12/21 14:40:58;;;;;;;9.35;3.22;;;;;;;;;;5052259;28;20119;-75
2021/12/21 14:43:28;;;;;;;7.60;3.00;;;;;;;;;;5052170;28;20041;-74
2021/12/21 14:45:57;;;;;;;12.10;3.80;;;;;;;;;;5033855;28;20103;-75
2021/12/21 14:48:27;;;;;;;9.25;3.35;;;;;;;;;;5052518;28;20056;-74
2021/12/21 14:51:06;;;;;;;8.68;3.42;;;;;;;;;;5056075;28;20114;-71
2021/12/21 14:53:45;;;;;;;10.85;3.88;;;;;;;;;;5052754;28;20044;-70
2021/12/21 14:56:25;;;;;;;9.90;5.00;;;;;;;;;;5055492;28;20049;-71
2021/12/21 14:58:56;;;;;;;6.93;3.75;;;;;;;;;;5055116;28;20059;-73
2021/12/21 15:01:24;;;;;;;10.95;3.72;;;;;;;;;;5055499;28;20119;-74
2021/12/21 15:03:54;;;;;;;9.35;3.63;;;;;;;;;;5055739;28;20041;-70
2021/12/21 15:06:23;;;;;;;12.45;3.40;;;;;;;;;;5055284;28;20041;-70
2021/12/21 15:08:51;;;;;;;8.15;3.65;;;;;;;;;;5055470;28;20095;-70
2021/12/21 15:11:34;;;;;;;;;;;;;;;;;;5054989;28;20075;-70
2021/12/21 15:14:01;;;;;;;10.02;3.47;;;;;;;;;;5055232;28;19931;-71
2021/12/21 15:16:29;;;;;;;6.82;2.90;;;;;;;;;;5055144;28;20045;-74
2021/12/21 15:18:56;;;;;;;5.10;3.00;;;;;;;;;;5055215;28;20067;-74
2021/12/21 15:21:24;;;;;;;13.00;3.72;;;;;;;;;;5054684;28;20049;-70
2021/12/21 15:23:59;;;;;;;11.57;2.80;;;;;;;;;;5055297;28;20036;-73
2021/12/21 15:26:28;;;;;;;11.25;3.67;;;;;;;;;;5055058;28;20083;-71
2021/12/21 15:28:56;;;;;;;8.48;3.53;;;;;;;;;;5055201;28;20107;-71
2021/12/21 15:31:25;;;;;;;6.38;3.47;;;;;;;;;;5037499;28;20560;-71
2021/12/21 15:33:52;;;;;;;5.05;2.85;;;;;;;;;;5055245;28;20052;-71
2021/12/21 15:36:21;;;;;;;8.02;3.30;;;;;;;;;;5054765;28;20120;-72
2021/12/21 15:38:51;;;;;;;13.13;4.13;;;;;;;;;;5054016;28;20041;-72
2021/12/21 15:41:20;;;;;;;12.07;3.08;;;;;;;;;;5053516;28;20051;-72
2021/12/21 15:43:50;;;;;;;12.63;3.53;;;;;;;;;;5053935;28;20053;-72
2021/12/21 15:46:19;;;;;;;11.50;3.83;;;;;;;;;;5053615;28;20080;-71
2021/12/21 15:48:48;;;;;;;7.18;3.50;;;;;;;;;;5037012;28;20128;-74
2021/12/21 15:51:19;;;;;;;10.73;5.25;;;;;;;;;;5054828;28;20044;-74
2021/12/21 15:53:49;;;;;;;10.40;3.78;;;;;;;;;;5036933;28;20132;-73
2021/12/21 15:56:20;;;;;;;7.72;3.50;;;;;;;;;;5054927;28;20055;-71
2021/12/21 15:58:48;;;;;;;8.77;3.20;;;;;;;;;;5036968;28;20052;-72
2021/12/21 16:01:16;;;;;;;6.10;3.20;;;;;;;;;;5054913;28;20040;-71
2021/12/21 16:03:46;;;;;;;7.65;3.35;;;;;;;;;;5054730;28;20382;-72